Terminal Aerodrome Forecast
Issued by NWS

Home | Current Version | Previous Version | Text Only | Print | Product List | Glossary Off
Versions: 1 2 3 4 5 6 7 8 9 10 11 12

639
FTUS42 KMHX 181733
TAFOAJ
TAF
KOAJ 181733Z 1818/1918 21010G18KT P6SM SCT040 SCT150
     FM182000 20011KT P6SM BKN040
     FM190000 19008KT P6SM SCT150
     FM190800 22011G25KT P6SM VCSH SCT025 BKN050
     FM191100 26010G20KT P6SM VCSH OVC030
     FM191600 28011G18KT P6SM SKC
      AMD LTD TO CLD VIS AND WIND=

USA.gov is the U.S. government's official web portal to all federal, state and local government web resources and services.